WEATHER DATA

YESTERDAY
Time Temp. Dewp. Hum. Wind dir Wind speed Wind gust Bar. 1h Prec. 24h Prec.
00:01 12.7 3.6 54 335 0.3 1.1 1027.1 0.0000 0.0000
00:20 12.2 3.4 55 0 0.8 1027.2 0.0000 0.0000
00:41 12 3.2 55 338 0.3 1.1 1026.9 0.0000 0.0000
00:51 11.8 3.1 55 0 0.8 1026.8 0.0000 0.0000
01:00 11.6 3.1 56 0 0.3 1026.7 0.0000 0.0000
01:11 11.5 3 56 0 0.3 1026.7 0.0000 0.0000
01:21 11.3 3.1 57 0 0.3 1026.6 0.0000 0.0000
01:31 11.1 2.9 57 0 0.3 1026.5 0.0000 0.0000
01:40 10.9 3 58 0 0.3 1026.5 0.0000 0.0000
01:51 10.7 3 59 0 0.8 1026.4 0.0000 0.0000
02:01 10.5 2.8 59 0 0.3 1026.3 0.0000 0.0000
02:11 10.3 2.6 59 0 0.8 1026.1 0.0000 0.0000
02:21 10.1 2.5 59 353 0.3 0.8 1026.1 0.0000 0.0000
02:31 10 2.6 60 0 0.3 1025.9 0.0000 0.0000
02:42 9.9 2.5 60 0 0.3 1025.8 0.0000 0.0000
02:51 9.7 2.6 61 0 0.3 1025.7 0.0000 0.0000
03:02 9.6 2.7 62 0 0.3 1025.6 0.0000 0.0000
03:12 9.4 2.3 61 341 0.3 0.8 1025.4 0.0000 0.0000
03:23 9.2 2.3 62 321 0.3 0.8 1025.3 0.0000 0.0000
03:34 9.1 2.2 62 0 0.3 1025.3 0.0000 0.0000
03:44 8.9 2 62 0 0.3 1025.3 0.0000 0.0000
03:54 8.8 2.2 63 0 0.3 1025.3 0.0000 0.0000
04:04 8.7 2.1 63 0 0.3 1025.1 0.0000 0.0000
04:14 8.6 2.2 64 270 0.3 0.8 1025.2 0.0000 0.0000
04:25 8.5 2.1 64 323 0.3 0.8 1025.1 0.0000 0.0000
04:35 8.3 1.7 63 270 0.3 0.8 1024.9 0.0000 0.0000
04:45 8.2 1.6 63 90 0.3 0.8 1024.9 0.0000 0.0000
04:55 8 1.4 63 0 0.8 1024.7 0.0000 0.0000
05:06 7.9 1.5 64 0 0.3 1024.6 0.0000 0.0000
05:16 7.8 1.6 65 0 0.8 1024.5 0.0000 0.0000
05:35 7.5 1.4 65 0 0.3 1024.2 0.0000 0.0000
05:46 7.3 1.2 65 270 0.3 0.8 1024.2 0.0000 0.0000
05:56 7.2 1.3 66 0 0.3 1024.1 0.0000 0.0000
06:06 7.1 1.2 66 0 0.8 1024.2 0.0000 0.0000
06:26 6.9 1.2 67 0 0.3 1024 0.0000 0.0000
06:36 6.8 1.1 67 0 0.8 1023.9 0.0000 0.0000
06:46 7.1 1.8 69 303 0.3 0.8 1023.9 0.0000 0.0000
06:57 8.3 2.7 68 0 0.8 1024 0.0000 0.0000
07:06 9.5 3.3 65 315 0.3 0.8 1023.8 0.0000 0.0000
07:16 10.8 3.1 59 270 0.3 0.8 1023.8 0.0000 0.0000
07:26 12.1 3.3 55 270 0.3 0.8 1023.8 0.0000 0.0000
07:37 13.2 3.3 51 315 0.3 1.1 1023.8 0.0000 0.0000
07:46 13.8 3.6 50 319 0.3 1.1 1023.8 0.0000 0.0000
07:57 14.7 3.5 47 315 0.3 1.1 1023.8 0.0000 0.0000
08:07 15.2 3 44 315 0.3 1.4 1023.6 0.0000 0.0000
08:17 15.9 4 45 318 0.8 1.7 1023.5 0.0000 0.0000
08:27 17 4.7 44 315 0.8 1.4 1023.5 0.0000 0.0000
08:37 18.2 5.4 43 315 0.3 1.7 1023.5 0.0000 0.0000
08:48 19 5.1 40 319 0.3 1.4 1023.5 0.0000 0.0000
09:07 19.8 5.8 40 45 0.3 1.1 1023.4 0.0000 0.0000
09:18 19.2 5.3 40 270 0.3 1.1 1023.3 0.0000 0.0000
09:28 19 4.7 39 315 0.3 1.1 1023.2 0.0000 0.0000
09:38 18.4 5.6 43 90 0.3 1.4 1023.1 0.0000 0.0000
09:47 18.4 5.6 43 90 0.3 1.7 1023 0.0000 0.0000
09:58 18.4 5.3 42 333 0.3 1.4 1022.9 0.0000 0.0000
10:08 18.7 5.9 43 103 0.8 1.7 1022.9 0.0000 0.0000
10:18 18.9 6.1 43 113 0.8 1.4 1022.8 0.0000 0.0000
10:28 19.4 6.2 42 90 0.3 1.7 1022.8 0.0000 0.0000
10:38 19.8 6.5 42 18 0.3 1.4 1022.7 0.0000 0.0000
10:48 20.2 6.5 41 344 0.3 1.4 1022.6 0.0000 0.0000
10:58 20.3 6.6 41 45 0.3 1.1 1022.4 0.0000 0.0000
11:09 20.6 6.9 41 320 0.3 1.7 1022.4 0.0000 0.0000
11:18 21.1 7 40 90 0.3 1.7 1022.2 0.0000 0.0000
11:28 21.4 7.3 40 90 0.3 1.7 1022.2 0.0000 0.0000
11:39 21.6 6.7 38 319 0.8 2.2 1022.1 0.0000 0.0000
11:49 22 6.7 37 338 0.8 2.2 1021.9 0.0000 0.0000
11:59 22 6.3 36 11 0.8 1.7 1021.7 0.0000 0.0000
12:08 22.3 6.5 36 315 0.8 2.2 1021.7 0.0000 0.0000
12:19 22.6 6.8 36 161 0.8 1.7 1021.3 0.0000 0.0000
12:29 22.4 5.8 34 90 0.3 1.4 1021.1 0.0000 0.0000
12:39 22.4 5.8 34 115 0.8 2.2 1021.1 0.0000 0.0000
12:49 22.3 5.7 34 125 0.3 2.2 1021 0.0000 0.0000
12:59 22.3 5.3 33 329 0.8 2.5 1021 0.0000 0.0000
13:09 22.1 5.1 33 45 0.8 3.3 1020.9 0.0000 0.0000
13:19 22.6 5.5 33 117 0.8 2.2 1020.7 0.0000 0.0000
13:30 22.7 5.6 33 116 0.8 2.2 1020.6 0.0000 0.0000
13:40 22.7 5.6 33 107 0.8 2.8 1020.5 0.0000 0.0000
13:49 22.6 5.5 33 123 1.4 4.7 1020.4 0.0000 0.0000
13:59 22.8 6.1 34 103 0.8 3.3 1020.2 0.0000 0.0000
14:10 22.7 6.5 35 90 0.8 1.7 1020.1 0.0000 0.0000
14:20 22.8 5.7 33 119 1.1 2.2 1019.9 0.0000 0.0000
14:30 22.9 3.9 29 115 1.1 2.5 1019.8 0.0000 0.0000
14:40 23.1 5.1 31 81 1.1 3.6 1019.6 0.0000 0.0000
14:50 23.2 4.7 30 9 1.1 2.2 1019.5 0.0000 0.0000
15:00 23.1 4.6 30 11 1.1 2.2 1019.4 0.0000 0.0000
15:10 23 5 31 0 0.8 1.7 1019.2 0.0000 0.0000
15:20 23 4.5 30 60 0.8 2.2 1019.1 0.0000 0.0000
15:30 23.2 3.7 28 108 1.1 4.2 1018.9 0.0000 0.0000
15:41 23.5 4.9 30 90 0.8 2.2 1018.8 0.0000 0.0000
15:51 23.3 4.3 29 348 1.1 2.5 1018.6 0.0000 0.0000
16:01 23.4 4.9 30 100 1.1 2.5 1018.5 0.0000 0.0000
16:11 23.6 5 30 80 1.1 3.3 1018.3 0.0000 0.0000
16:21 23.6 4 28 78 0.8 1.7 1018.2 0.0000 0.0000
16:32 23.7 4.1 28 125 1.1 3.3 1018.1 0.0000 0.0000
16:42 23.6 4.5 29 90 1.1 2.8 1017.9 0.0000 0.0000
16:51 23.5 4 28 40 0.8 2.2 1017.8 0.0000 0.0000
17:01 23.6 4.5 29 100 1.1 2.8 1017.8 0.0000 0.0000
17:12 23.4 4.4 29 55 0.8 2.5 1017.6 0.0000 0.0000
17:22 23.2 3.7 28 336 0.8 2.2 1017.4 0.0000 0.0000
17:32 23 3.5 28 19 0.8 2.2 1017.3 0.0000 0.0000
17:42 23 4 29 48 0.8 3.3 1017.3 0.0000 0.0000
17:52 22.9 3.9 29 6 0.8 2.8 1017.2 0.0000 0.0000
18:12 22.6 4.2 30 70 1.1 3.9 1016.8 0.0000 0.0000
18:22 22.5 3.6 29 355 0.8 1.7 1016.8 0.0000 0.0000
18:32 22.4 4 30 0 0.8 2.2 1016.7 0.0000 0.0000
18:42 22.3 3.4 29 352 1.1 2.2 1016.7
18:46 22.2 3.3 29 346 0.8 2.2 1016.6 0.0000 0.0000
18:56 22.1 3.3 29 353 0.8 2.5 1016.5 0.0000 0.0000
19:06 21.9 3.1 29 19 0.8 1.4 1016.6 0.0000 0.0000
19:16 21.8 3.5 30 355 0.8 1.4 1016.5 0.0000 0.0000
19:26 21.6 3.8 31 2 0.8 1.4 1016.4 0.0000 0.0000
19:36 21.3 3.5 31 341 0.8 2.5 1016.5 0.0000 0.0000
19:46 21.1 4.2 33 349 0.8 1.4 1016.3 0.0000 0.0000
19:57 20.9 3.6 32 351 0.8 1.4 1016.3 0.0000 0.0000
20:06 20.6 4.2 34 348 0.8 1.1 1016.4 0.0000 0.0000
20:16 19.9 6.6 42 340 0.8 1.4 1016.3 0.0000 0.0000
20:26 19.3 6.8 44 332 0.8 3.3 1016.4 0.0000 0.0000
20:37 18.9 6.7 45 355 0.3 0.8 1016.5 0.0000 0.0000
20:47 18.5 6.7 46 332 0.3 1.1 1016.7 0.0000 0.0000
20:56 18.2 6.4 46 321 0.8 1.4 1016.7 0.0000 0.0000
21:07 17.8 6.3 47 315 0.3 1.4 1016.7 0.0000 0.0000
21:17 17.4 6.3 48 336 0.3 1.4 1016.6 0.0000 0.0000
21:27 17.1 6.6 50 315 0.3 1.4 1016.6 0.0000 0.0000
21:37 16.9 6.4 50 333 0.3 0.8 1016.6 0.0000 0.0000
21:47 16.7 6.5 51 332 0.3 1.4 1016.6 0.0000 0.0000
21:57 16.4 6.5 52 335 0.3 1.1 1016.4 0.0000 0.0000
22:07 16.2 6.6 53 324 0.3 1.1 1016.3 0.0000 0.0000
22:18 16 6.4 53 320 0.3 0.8 1016.3 0.0000 0.0000
22:27 15.8 6.5 54 315 0.3 1.1 1016.2 0.0000 0.0000
22:37 15.6 6.6 55 333 0.3 1.1 1016.1 0.0000 0.0000
22:47 15.5 6.5 55 343 0.3 1.1 1016 0.0000 0.0000
22:58 15.3 6.3 55 331 0.3 1.1 1016.1 0.0000 0.0000
23:07 15.2 6.5 56 336 0.3 1.1 1016 0.0000 0.0000
23:17 15 6.3 56 335 0.3 0.8 1016 0.0000 0.0000
23:28 14.8 6.4 57 352 0.3 0.8 1015.9 0.0000 0.0000
23:38 14.7 6.3 57 338 0.3 0.8 1015.8 0.0000 0.0000
23:48 14.5 6.3 58 356 0.3 0.8 1015.7 0.0000 0.0000
23:58 14.3 6.2 58 0 0.3 0.8 1015.7 0.0000 0.0000

DAY STATISTIC

2019-04-21
TEMPERATURE
AVERAGE
17.0
HIGH
23.7
16:32
LOW
6.8
06:36
PRESSURE
AVERAGE
1021.0
HIGH
1027.2
00:20
LOW
1015.7
23:48
DEWPOINT
AVERAGE
4.4
HIGH
7.3
11:28
LOW
1.1
06:36
HUMIDITY
AVERAGE
46
HIGH
69
06:46
LOW
28
15:30
WIND SPEED
AVERAGE
0.5
HIGH
1.4
13:49
WIND GUST
AVERAGE
1.5
HIGH
4.7
13:49
WIND DIRECTION
PREVAILING
NW
26.1%
N
23.2
NE
5.1
E
14.5
SE
6.5
S
0.7
SW
0.0
W
4.3
NW
26.1
PRECIPITATION
RAIN HOUR
0.0
RAIN DAY
0.0
TEMPERATURE (°C)
LOW
6.8
HIGH
23.7
AVERAGE
17.0
PRESSURE (hpa)
LOW
1015.7
HIGH
1027.2
AVERAGE
1021.0
DEVICE